Time;durP1;ratioP1;P1;durP2;ratioP2;P2;SDS_P1;SDS_P2;PMS_P1;PMS_P2;Temp;Humidity;BMP_temperature;BMP_pressure;BME280_temperature;BME280_humidity;BME280_pressure;Samples;Min_cycle;Max_cycle;Signal;HPM_P1;HPM_P2
2021/08/12 00:00:10;;;;;;;20.02;15.52;;;;;;;;;;2064656;28;20173;-56
2021/08/12 00:01:11;;;;;;;17.48;15.45;;;;;;;;;;2063633;28;20178;-59
2021/08/12 00:02:11;;;;;;;17.08;15.15;;;;;;;;;;2073127;28;20208;-56
2021/08/12 00:03:11;;;;;;;19.35;17.35;;;;;;;;;;2073007;28;20179;-54
2021/08/12 00:04:17;;;;;;;28.58;20.38;;;;;;;;;;2072924;28;20192;-60
2021/08/12 00:05:17;;;;;;;23.83;19.42;;;;;;;;;;2073188;28;20153;-56
2021/08/12 00:06:17;;;;;;;20.67;16.83;;;;;;;;;;2064276;28;20170;-57
2021/08/12 00:07:18;;;;;;;18.42;15.13;;;;;;;;;;2064115;28;20190;-59
2021/08/12 00:08:18;;;;;;;17.55;15.60;;;;;;;;;;2064172;28;20174;-54
2021/08/12 00:09:18;;;;;;;18.23;15.55;;;;;;;;;;2064652;28;20232;-57
2021/08/12 00:10:18;;;;;;;16.73;14.95;;;;;;;;;;2073188;28;20177;-58
2021/08/12 00:11:19;;;;;;;18.35;15.57;;;;;;;;;;2072851;28;20173;-56
2021/08/12 00:12:19;;;;;;;16.05;14.40;;;;;;;;;;2073472;28;20661;-58
2021/08/12 00:13:20;;;;;;;19.38;15.00;;;;;;;;;;2072862;28;20176;-50
2021/08/12 00:14:20;;;;;;;18.23;15.23;;;;;;;;;;2073401;28;20173;-57
2021/08/12 00:15:20;;;;;;;16.00;14.30;;;;;;;;;;2072960;28;20169;-53
2021/08/12 00:16:21;;;;;;;17.33;15.52;;;;;;;;;;2073164;28;20205;-57
2021/08/12 00:17:21;;;;;;;21.15;16.55;;;;;;;;;;2064744;28;20193;-51
2021/08/12 00:18:21;;;;;;;17.70;15.80;;;;;;;;;;2061269;28;20610;-58
2021/08/12 00:19:22;;;;;;;17.60;14.43;;;;;;;;;;2064063;28;20205;-57
2021/08/12 00:20:22;;;;;;;18.45;15.23;;;;;;;;;;2072597;28;20248;-56
2021/08/12 00:21:23;;;;;;;18.70;15.63;;;;;;;;;;2072414;28;20878;-58
2021/08/12 00:22:23;;;;;;;18.85;16.02;;;;;;;;;;2071140;28;20177;-58
2021/08/12 00:23:23;;;;;;;16.75;14.27;;;;;;;;;;2070574;28;20200;-60
2021/08/12 00:24:23;;;;;;;18.02;15.15;;;;;;;;;;2072571;28;20543;-55
2021/08/12 00:25:24;;;;;;;17.00;14.90;;;;;;;;;;2072744;28;20196;-57
2021/08/12 00:26:24;;;;;;;17.50;15.43;;;;;;;;;;2073268;28;20685;-57
2021/08/12 00:27:24;;;;;;;18.00;16.08;;;;;;;;;;2072768;28;20165;-58
2021/08/12 00:28:24;;;;;;;18.63;15.27;;;;;;;;;;2073457;28;20173;-57
2021/08/12 00:29:25;;;;;;;17.02;15.23;;;;;;;;;;2073173;28;20215;-57
2021/08/12 00:30:25;;;;;;;18.52;15.30;;;;;;;;;;2064490;28;20180;-54
2021/08/12 00:31:25;;;;;;;19.48;16.02;;;;;;;;;;2064064;28;20178;-55
2021/08/12 00:32:26;;;;;;;17.27;15.48;;;;;;;;;;2071210;28;20214;-58
2021/08/12 00:33:26;;;;;;;18.83;16.15;;;;;;;;;;2070006;28;20275;-59
2021/08/12 00:34:26;;;;;;;17.85;15.55;;;;;;;;;;2064628;28;20636;-56
2021/08/12 00:35:27;;;;;;;17.33;15.38;;;;;;;;;;2064300;28;20680;-57
2021/08/12 00:36:27;;;;;;;17.65;15.05;;;;;;;;;;2064263;28;20177;-55
2021/08/12 00:37:28;;;;;;;17.80;15.25;;;;;;;;;;2063913;28;20228;-59
2021/08/12 00:38:32;;;;;;;20.27;15.93;;;;;;;;;;2057608;28;20158;-57
2021/08/12 00:39:33;;;;;;;19.77;15.45;;;;;;;;;;2056390;28;20253;-59
2021/08/12 00:40:33;;;;;;;17.88;15.25;;;;;;;;;;2056456;28;20731;-53
2021/08/12 00:41:37;;;;;;;18.90;15.13;;;;;;;;;;2072909;28;20171;-55
2021/08/12 00:42:40;;;;;;;18.83;15.98;;;;;;;;;;2064056;28;20818;-57
2021/08/12 00:43:41;;;;;;;17.48;15.07;;;;;;;;;;2064459;28;20170;-55
2021/08/12 00:44:42;;;;;;;16.75;14.68;;;;;;;;;;2072772;28;20177;-59
2021/08/12 00:45:43;;;;;;;18.15;15.60;;;;;;;;;;2064255;28;20181;-56
2021/08/12 00:46:44;;;;;;;16.98;15.18;;;;;;;;;;2064690;28;20177;-57
2021/08/12 00:47:47;;;;;;;17.70;14.90;;;;;;;;;;2063779;28;20181;-59
2021/08/12 00:48:48;;;;;;;19.42;15.10;;;;;;;;;;2056863;28;20185;-58
2021/08/12 00:49:49;;;;;;;18.15;15.57;;;;;;;;;;2064288;28;20193;-58
2021/08/12 00:50:49;;;;;;;17.50;15.35;;;;;;;;;;2064103;28;20257;-59
2021/08/12 00:51:50;;;;;;;18.33;15.40;;;;;;;;;;2063387;28;20260;-59
2021/08/12 00:52:50;;;;;;;18.17;16.27;;;;;;;;;;2063809;28;20185;-55
2021/08/12 00:53:51;;;;;;;19.88;16.55;;;;;;;;;;2067775;28;20172;-56
2021/08/12 00:54:54;;;;;;;18.13;16.15;;;;;;;;;;2057398;28;20185;-57
2021/08/12 00:55:54;;;;;;;18.02;14.90;;;;;;;;;;2063642;28;20224;-57
2021/08/12 00:56:55;;;;;;;17.10;15.30;;;;;;;;;;2071176;28;20625;-57
2021/08/12 00:57:55;;;;;;;20.48;17.73;;;;;;;;;;2063952;28;20178;-58
2021/08/12 00:58:56;;;;;;;71.43;50.17;;;;;;;;;;2064529;28;20564;-58
2021/08/12 00:59:56;;;;;;;27.48;23.65;;;;;;;;;;2064236;28;20169;-60
2021/08/12 01:00:57;;;;;;;21.90;18.23;;;;;;;;;;2057051;28;20174;-58
2021/08/12 01:01:58;;;;;;;18.13;16.23;;;;;;;;;;2067745;28;20181;-56
2021/08/12 01:02:59;;;;;;;19.13;17.00;;;;;;;;;;2064822;28;20180;-56
2021/08/12 01:04:00;;;;;;;19.08;17.08;;;;;;;;;;2064435;28;20177;-56
2021/08/12 01:05:01;;;;;;;19.45;16.55;;;;;;;;;;2056266;28;20185;-55
2021/08/12 01:06:01;;;;;;;18.52;16.55;;;;;;;;;;2064330;28;20264;-55
2021/08/12 01:07:08;;;;;;;18.42;15.35;;;;;;;;;;2069901;28;20211;-56
2021/08/12 01:08:12;;;;;;;19.92;15.90;;;;;;;;;;2059168;28;20181;-56
2021/08/12 01:09:16;;;;;;;18.10;15.85;;;;;;;;;;2066292;28;20179;-56
2021/08/12 01:10:29;;;;;;;17.63;15.77;;;;;;;;;;2067825;28;20701;-57
2021/08/12 01:11:41;;;;;;;17.67;14.90;;;;;;;;;;2070579;28;20668;-59
2021/08/12 01:12:59;;;;;;;19.10;15.93;;;;;;;;;;2063429;28;20193;-58
2021/08/12 01:14:06;;;;;;;19.20;16.38;;;;;;;;;;2060794;28;20174;-53
2021/08/12 01:15:07;;;;;;;19.98;16.10;;;;;;;;;;2064126;28;20181;-60
2021/08/12 01:16:10;;;;;;;18.40;15.40;;;;;;;;;;2064093;28;20173;-59
2021/08/12 01:17:14;;;;;;;18.40;15.93;;;;;;;;;;2064154;28;20209;-58
2021/08/12 01:18:24;;;;;;;20.75;15.88;;;;;;;;;;2065553;28;20417;-59
2021/08/12 01:19:34;;;;;;;18.33;16.30;;;;;;;;;;2057385;28;20198;-57
2021/08/12 01:20:47;;;;;;;19.48;16.30;;;;;;;;;;2057283;28;20179;-55
2021/08/12 01:21:55;;;;;;;18.98;16.38;;;;;;;;;;2064143;28;20252;-57
2021/08/12 01:22:57;;;;;;;17.20;15.40;;;;;;;;;;2064297;28;20730;-57
2021/08/12 01:24:00;;;;;;;19.58;16.40;;;;;;;;;;2056303;28;20228;-56
2021/08/12 01:25:02;;;;;;;17.92;16.08;;;;;;;;;;2064400;28;20181;-57
2021/08/12 01:26:03;;;;;;;19.52;16.13;;;;;;;;;;2064417;28;20208;-58
2021/08/12 01:27:07;;;;;;;22.45;17.15;;;;;;;;;;2064331;28;20732;-59
2021/08/12 01:28:17;;;;;;;18.05;15.65;;;;;;;;;;2064723;28;20180;-60
2021/08/12 01:30:30;;;;;;;17.90;16.15;;;;;;;;;;2050525;28;20570;-53
2021/08/12 01:32:05;;;;;;;19.70;16.27;;;;;;;;;;2064661;28;20555;-52
2021/08/12 01:33:14;;;;;;;18.13;16.00;;;;;;;;;;2044404;29;20182;-54
2021/08/12 01:34:20;;;;;;;20.98;16.40;;;;;;;;;;2042296;29;20255;-50
2021/08/12 01:35:22;;;;;;;18.75;16.63;;;;;;;;;;2044736;28;20171;-52
2021/08/12 01:36:23;;;;;;;19.08;16.83;;;;;;;;;;2065822;28;20170;-51
2021/08/12 01:37:25;;;;;;;20.63;17.33;;;;;;;;;;2064522;28;20264;-52
2021/08/12 01:38:27;;;;;;;20.58;17.13;;;;;;;;;;2065116;28;20173;-54
2021/08/12 01:39:28;;;;;;;19.33;17.30;;;;;;;;;;2073960;28;20173;-55
2021/08/12 01:40:30;;;;;;;18.70;16.48;;;;;;;;;;2068821;28;20692;-52
2021/08/12 01:41:31;;;;;;;22.88;17.38;;;;;;;;;;2053041;28;20174;-55
2021/08/12 01:42:32;;;;;;;18.77;16.52;;;;;;;;;;2052566;28;20258;-52
2021/08/12 01:43:33;;;;;;;19.80;16.63;;;;;;;;;;2064189;28;20165;-53
2021/08/12 01:44:39;;;;;;;21.63;17.73;;;;;;;;;;2049985;28;20540;-53
2021/08/12 01:46:01;;;;;;;21.60;17.65;;;;;;;;;;2051150;28;20178;-55
2021/08/12 01:47:04;;;;;;;20.13;17.17;;;;;;;;;;2054315;28;20579;-52
2021/08/12 01:48:05;;;;;;;19.90;17.52;;;;;;;;;;2049506;28;20193;-55
2021/08/12 01:49:06;;;;;;;21.10;18.17;;;;;;;;;;2049755;28;20185;-56
2021/08/12 01:50:13;;;;;;;20.77;17.48;;;;;;;;;;2041463;29;20242;-52
2021/08/12 01:51:14;;;;;;;20.25;17.77;;;;;;;;;;2051875;28;20247;-54
2021/08/12 01:52:15;;;;;;;20.85;18.23;;;;;;;;;;2059103;28;20761;-53
2021/08/12 01:53:21;;;;;;;22.27;17.48;;;;;;;;;;2056830;28;20185;-50
2021/08/12 01:54:23;;;;;;;21.75;17.98;;;;;;;;;;2054410;28;20178;-57
2021/08/12 01:55:29;;;;;;;18.98;16.98;;;;;;;;;;2047343;28;20414;-52
2021/08/12 01:56:32;;;;;;;20.15;16.55;;;;;;;;;;2058082;28;20185;-55
2021/08/12 01:57:33;;;;;;;21.30;17.75;;;;;;;;;;2048484;28;20183;-53
2021/08/12 01:58:34;;;;;;;22.05;17.23;;;;;;;;;;2052181;28;20178;-55
2021/08/12 01:59:36;;;;;;;20.80;18.23;;;;;;;;;;2063612;28;20185;-52
2021/08/12 02:00:37;;;;;;;19.20;16.85;;;;;;;;;;2050477;28;20179;-57
2021/08/12 02:01:40;;;;;;;19.35;17.33;;;;;;;;;;2053181;28;20194;-57
2021/08/12 02:02:45;;;;;;;19.27;17.13;;;;;;;;;;2059321;28;20693;-56
2021/08/12 02:03:49;;;;;;;21.20;18.75;;;;;;;;;;2050675;28;20326;-57
2021/08/12 02:04:54;;;;;;;20.92;18.58;;;;;;;;;;2051518;28;20186;-51
2021/08/12 02:05:57;;;;;;;19.95;17.08;;;;;;;;;;2050602;28;20171;-54
2021/08/12 02:06:59;;;;;;;20.25;17.77;;;;;;;;;;2041581;29;20180;-55
2021/08/12 02:08:00;;;;;;;20.90;18.00;;;;;;;;;;2052767;28;20210;-56
2021/08/12 02:09:01;;;;;;;23.17;19.70;;;;;;;;;;2064483;28;20265;-55
2021/08/12 02:10:01;;;;;;;22.25;18.75;;;;;;;;;;2063186;28;20571;-51
2021/08/12 02:11:01;;;;;;;23.77;18.52;;;;;;;;;;2049802;28;20334;-60
2021/08/12 02:12:04;;;;;;;22.13;19.55;;;;;;;;;;2036231;29;20191;-54
2021/08/12 02:13:07;;;;;;;21.13;18.88;;;;;;;;;;2050827;28;20181;-52
2021/08/12 02:14:08;;;;;;;22.08;19.52;;;;;;;;;;2068264;28;20184;-52
2021/08/12 02:15:09;;;;;;;24.88;18.63;;;;;;;;;;2069731;28;20196;-57
2021/08/12 02:16:10;;;;;;;22.85;19.75;;;;;;;;;;2060576;28;20170;-57
2021/08/12 02:17:13;;;;;;;20.55;18.38;;;;;;;;;;2069400;28;20212;-51
2021/08/12 02:18:14;;;;;;;21.45;19.25;;;;;;;;;;2065689;28;20204;-54
2021/08/12 02:19:14;;;;;;;21.98;18.98;;;;;;;;;;2058195;28;20205;-53
2021/08/12 02:20:15;;;;;;;23.60;20.38;;;;;;;;;;2068964;28;20201;-55
2021/08/12 02:21:20;;;;;;;20.95;18.58;;;;;;;;;;2068680;28;20293;-51
2021/08/12 02:22:23;;;;;;;23.35;19.15;;;;;;;;;;2051943;28;20174;-54
2021/08/12 02:23:29;;;;;;;23.30;19.23;;;;;;;;;;2049176;28;20275;-51
2021/08/12 02:24:33;;;;;;;21.88;19.50;;;;;;;;;;2053390;28;20181;-58
2021/08/12 02:25:34;;;;;;;24.10;19.73;;;;;;;;;;2057961;28;20178;-52
2021/08/12 02:26:35;;;;;;;21.27;19.02;;;;;;;;;;2055856;28;20186;-55
2021/08/12 02:27:37;;;;;;;21.67;19.38;;;;;;;;;;2042724;28;20175;-57
2021/08/12 02:28:39;;;;;;;24.83;19.80;;;;;;;;;;2057564;28;20216;-54
2021/08/12 02:29:40;;;;;;;24.17;20.35;;;;;;;;;;2069058;28;20186;-57
2021/08/12 02:30:41;;;;;;;22.20;19.45;;;;;;;;;;2067872;28;20666;-51
2021/08/12 02:31:44;;;;;;;22.70;19.90;;;;;;;;;;2056541;28;20178;-50
2021/08/12 02:32:46;;;;;;;22.88;20.40;;;;;;;;;;2056721;28;20189;-51
2021/08/12 02:33:47;;;;;;;23.45;20.42;;;;;;;;;;2062762;28;20224;-50
2021/08/12 02:34:48;;;;;;;22.65;19.58;;;;;;;;;;2062324;28;20190;-52
2021/08/12 02:35:49;;;;;;;22.60;20.20;;;;;;;;;;2056862;28;20177;-50
2021/08/12 02:36:50;;;;;;;22.08;19.58;;;;;;;;;;2065555;28;20203;-53
2021/08/12 02:37:53;;;;;;;23.08;20.08;;;;;;;;;;2072465;28;20680;-50
2021/08/12 02:38:53;;;;;;;21.80;19.58;;;;;;;;;;2048695;28;20645;-51
2021/08/12 02:39:54;;;;;;;21.98;19.67;;;;;;;;;;2060227;28;20198;-54
2021/08/12 02:40:57;;;;;;;20.95;18.77;;;;;;;;;;2064249;28;20198;-52
2021/08/12 02:42:00;;;;;;;23.70;20.02;;;;;;;;;;2052176;28;20186;-55
2021/08/12 02:43:00;;;;;;;22.58;20.08;;;;;;;;;;2051352;28;20178;-53
2021/08/12 02:44:01;;;;;;;23.75;19.83;;;;;;;;;;2057705;28;20572;-51
2021/08/12 02:45:02;;;;;;;24.30;19.30;;;;;;;;;;2070171;28;20208;-51
2021/08/12 02:46:03;;;;;;;22.25;19.92;;;;;;;;;;2067431;28;20180;-53
2021/08/12 02:47:05;;;;;;;23.30;20.67;;;;;;;;;;2073040;28;20184;-51
2021/08/12 02:48:08;;;;;;;23.65;21.08;;;;;;;;;;2072385;28;20617;-51
2021/08/12 02:49:08;;;;;;;22.95;20.45;;;;;;;;;;2071330;28;20946;-51
2021/08/12 02:50:10;;;;;;;25.08;21.98;;;;;;;;;;2076557;28;20187;-53
2021/08/12 02:51:12;;;;;;;28.40;20.70;;;;;;;;;;2067681;28;20176;-52
2021/08/12 02:52:13;;;;;;;23.90;20.60;;;;;;;;;;2064744;28;20181;-56
2021/08/12 02:53:14;;;;;;;26.58;20.42;;;;;;;;;;2051536;28;20182;-53
2021/08/12 02:54:14;;;;;;;23.63;20.73;;;;;;;;;;2053163;28;20679;-53
2021/08/12 02:55:15;;;;;;;25.50;21.10;;;;;;;;;;2062196;28;20204;-58
2021/08/12 02:56:16;;;;;;;25.20;21.02;;;;;;;;;;2059610;28;20170;-54
2021/08/12 02:57:18;;;;;;;25.48;21.30;;;;;;;;;;2061434;28;20209;-51
2021/08/12 02:58:18;;;;;;;25.50;20.52;;;;;;;;;;2061541;28;20741;-50
2021/08/12 02:59:19;;;;;;;23.83;20.58;;;;;;;;;;2064880;28;20200;-50
2021/08/12 03:00:20;;;;;;;23.83;20.20;;;;;;;;;;2057110;28;20190;-50
2021/08/12 03:01:21;;;;;;;23.83;19.58;;;;;;;;;;2049292;28;20183;-51
2021/08/12 03:02:22;;;;;;;24.63;20.67;;;;;;;;;;2053259;28;20174;-50
2021/08/12 03:03:23;;;;;;;25.70;21.55;;;;;;;;;;2060419;28;20170;-55
2021/08/12 03:04:24;;;;;;;22.80;20.35;;;;;;;;;;2068983;28;20201;-54
2021/08/12 03:05:25;;;;;;;24.20;20.60;;;;;;;;;;2061742;28;20662;-53
2021/08/12 03:06:26;;;;;;;23.23;20.63;;;;;;;;;;2056036;28;20717;-53
2021/08/12 03:07:27;;;;;;;23.58;21.13;;;;;;;;;;2068097;28;20235;-56
2021/08/12 03:08:29;;;;;;;26.15;19.80;;;;;;;;;;2059801;28;20178;-50
2021/08/12 03:09:30;;;;;;;24.65;22.10;;;;;;;;;;2064366;28;20280;-56
2021/08/12 03:10:33;;;;;;;25.90;22.58;;;;;;;;;;2056351;28;20212;-51
2021/08/12 03:11:33;;;;;;;27.90;23.13;;;;;;;;;;2056284;28;20201;-52
2021/08/12 03:12:34;;;;;;;26.73;22.75;;;;;;;;;;2058134;28;20190;-52
2021/08/12 03:13:35;;;;;;;25.83;22.40;;;;;;;;;;2067269;28;20685;-55
2021/08/12 03:14:36;;;;;;;22.55;20.17;;;;;;;;;;2063984;28;20173;-51
2021/08/12 03:15:38;;;;;;;25.52;21.40;;;;;;;;;;2066331;28;20173;-52
2021/08/12 03:16:38;;;;;;;26.02;22.35;;;;;;;;;;2073172;28;20185;-53
2021/08/12 03:17:39;;;;;;;24.00;21.48;;;;;;;;;;2074226;28;20169;-53
2021/08/12 03:18:39;;;;;;;27.50;21.65;;;;;;;;;;2068036;28;20280;-54
2021/08/12 03:19:40;;;;;;;24.30;21.70;;;;;;;;;;2064479;28;20205;-53
2021/08/12 03:20:41;;;;;;;25.52;21.52;;;;;;;;;;2067066;28;20656;-53
2021/08/12 03:22:00;;;;;;;26.13;22.85;;;;;;;;;;2056927;28;20256;-53
2021/08/12 03:23:00;;;;;;;26.92;22.08;;;;;;;;;;2051954;28;20198;-51
2021/08/12 03:24:04;;;;;;;26.73;21.50;;;;;;;;;;2074420;28;20172;-56
2021/08/12 03:25:06;;;;;;;25.48;22.75;;;;;;;;;;2079663;28;20755;-52
2021/08/12 03:26:06;;;;;;;26.15;21.08;;;;;;;;;;2066953;28;20192;-56
2021/08/12 03:27:11;;;;;;;25.90;21.83;;;;;;;;;;2071715;28;20180;-54
2021/08/12 03:28:11;;;;;;;26.10;22.67;;;;;;;;;;2077033;28;20257;-54
2021/08/12 03:29:12;;;;;;;26.25;23.00;;;;;;;;;;2074828;28;20282;-52
2021/08/12 03:30:12;;;;;;;24.88;22.23;;;;;;;;;;2069042;28;20205;-51
2021/08/12 03:31:13;;;;;;;25.17;22.10;;;;;;;;;;2068588;28;20832;-52
2021/08/12 03:32:13;;;;;;;27.58;21.88;;;;;;;;;;2057777;28;20594;-54
2021/08/12 03:33:15;;;;;;;24.58;21.55;;;;;;;;;;2069357;28;20235;-54
2021/08/12 03:34:16;;;;;;;25.13;22.02;;;;;;;;;;2067634;28;20197;-54
2021/08/12 03:35:16;;;;;;;29.52;22.83;;;;;;;;;;2060314;28;20209;-52
2021/08/12 03:36:16;;;;;;;25.75;22.92;;;;;;;;;;2068775;28;20260;-52
2021/08/12 03:37:17;;;;;;;24.92;22.45;;;;;;;;;;2060589;28;20276;-51
2021/08/12 03:38:18;;;;;;;25.67;21.52;;;;;;;;;;2060956;28;20177;-50
2021/08/12 03:39:21;;;;;;;27.95;23.42;;;;;;;;;;2074904;28;20177;-51
2021/08/12 03:40:21;;;;;;;26.23;22.17;;;;;;;;;;2075009;28;20200;-51
2021/08/12 03:41:21;;;;;;;25.38;22.63;;;;;;;;;;2067614;28;20635;-54
2021/08/12 03:42:22;;;;;;;27.15;22.95;;;;;;;;;;2077961;28;20582;-52
2021/08/12 03:43:24;;;;;;;27.67;22.92;;;;;;;;;;2075143;28;20169;-50
2021/08/12 03:44:25;;;;;;;28.83;23.70;;;;;;;;;;2069995;28;20178;-50
2021/08/12 03:45:26;;;;;;;24.50;21.23;;;;;;;;;;2067211;28;20172;-54
2021/08/12 03:46:26;;;;;;;27.30;22.88;;;;;;;;;;2077362;28;20176;-49
2021/08/12 03:47:26;;;;;;;24.27;21.60;;;;;;;;;;2058309;28;20171;-52
2021/08/12 03:48:26;;;;;;;24.45;21.48;;;;;;;;;;2045897;28;20167;-53
2021/08/12 03:49:27;;;;;;;26.27;22.63;;;;;;;;;;2056292;28;20554;-51
2021/08/12 03:50:27;;;;;;;24.77;22.15;;;;;;;;;;2063164;28;20178;-55
2021/08/12 03:51:29;;;;;;;23.00;20.67;;;;;;;;;;2066942;28;20284;-52
2021/08/12 03:52:30;;;;;;;25.73;22.35;;;;;;;;;;2081109;28;20803;-55
2021/08/12 03:53:31;;;;;;;25.23;22.27;;;;;;;;;;2073308;28;20181;-55
2021/08/12 03:54:32;;;;;;;24.33;21.13;;;;;;;;;;2070062;28;20203;-54
2021/08/12 03:55:32;;;;;;;24.45;21.77;;;;;;;;;;2061459;28;20197;-54
2021/08/12 03:56:33;;;;;;;24.20;21.70;;;;;;;;;;2061667;28;20174;-54
2021/08/12 03:57:33;;;;;;;23.30;20.83;;;;;;;;;;2059370;28;20293;-51
2021/08/12 03:58:34;;;;;;;25.27;22.67;;;;;;;;;;2063590;28;20563;-50
2021/08/12 03:59:34;;;;;;;25.38;22.42;;;;;;;;;;2057527;28;20232;-55
2021/08/12 04:00:36;;;;;;;24.00;21.50;;;;;;;;;;2056160;28;20185;-53
2021/08/12 04:01:36;;;;;;;25.52;22.13;;;;;;;;;;2044252;28;20187;-51
2021/08/12 04:02:36;;;;;;;25.25;22.10;;;;;;;;;;2070069;28;20172;-53
2021/08/12 04:03:37;;;;;;;24.88;21.80;;;;;;;;;;2073063;28;20207;-52
2021/08/12 04:04:37;;;;;;;24.67;22.08;;;;;;;;;;2064616;28;20169;-52
2021/08/12 04:05:37;;;;;;;25.52;22.33;;;;;;;;;;2065329;28;20227;-52
2021/08/12 04:06:37;;;;;;;25.25;22.55;;;;;;;;;;2056851;28;20173;-53
2021/08/12 04:07:38;;;;;;;25.67;22.35;;;;;;;;;;2056989;28;20166;-51
2021/08/12 04:08:38;;;;;;;23.38;21.08;;;;;;;;;;2060770;28;20604;-50
2021/08/12 04:09:40;;;;;;;23.23;20.90;;;;;;;;;;2056248;28;20216;-54
2021/08/12 04:10:41;;;;;;;23.85;21.20;;;;;;;;;;2056316;28;20699;-52
2021/08/12 04:11:42;;;;;;;25.08;22.38;;;;;;;;;;2065471;28;20181;-54
2021/08/12 04:12:42;;;;;;;24.88;22.27;;;;;;;;;;2065024;28;20181;-55
2021/08/12 04:13:42;;;;;;;27.40;20.83;;;;;;;;;;2065266;28;20658;-52
2021/08/12 04:14:43;;;;;;;25.08;22.42;;;;;;;;;;2071384;28;20222;-54
2021/08/12 04:15:43;;;;;;;28.15;23.65;;;;;;;;;;2080724;28;20589;-52
2021/08/12 04:16:43;;;;;;;26.70;22.27;;;;;;;;;;2071275;28;20676;-53
2021/08/12 04:17:44;;;;;;;25.65;22.92;;;;;;;;;;2065136;28;20236;-54
2021/08/12 04:18:44;;;;;;;26.08;23.23;;;;;;;;;;2064535;28;20178;-54
2021/08/12 04:19:44;;;;;;;25.50;22.85;;;;;;;;;;2063945;28;20190;-56
2021/08/12 04:20:44;;;;;;;24.05;21.52;;;;;;;;;;2056320;28;20182;-53
2021/08/12 04:21:45;;;;;;;29.27;22.20;;;;;;;;;;2068641;28;20164;-53
2021/08/12 04:22:45;;;;;;;26.73;23.85;;;;;;;;;;2059046;28;20177;-57
2021/08/12 04:23:46;;;;;;;23.48;20.98;;;;;;;;;;2068858;28;20174;-53
2021/08/12 04:24:46;;;;;;;26.73;23.58;;;;;;;;;;2069401;28;20178;-54
2021/08/12 04:25:46;;;;;;;25.42;22.38;;;;;;;;;;2059289;28;20163;-53
2021/08/12 04:26:46;;;;;;;24.95;21.50;;;;;;;;;;2069233;28;20181;-54
2021/08/12 04:27:47;;;;;;;25.20;22.58;;;;;;;;;;2065310;28;20166;-53
2021/08/12 04:28:48;;;;;;;26.42;23.70;;;;;;;;;;2048836;28;20167;-51
2021/08/12 04:29:49;;;;;;;26.70;23.83;;;;;;;;;;2059841;28;20938;-54
2021/08/12 04:30:49;;;;;;;26.23;23.48;;;;;;;;;;2064832;28;20169;-55
2021/08/12 04:31:51;;;;;;;27.58;23.08;;;;;;;;;;2069019;28;20173;-51
2021/08/12 04:32:52;;;;;;;26.35;23.50;;;;;;;;;;2058735;28;20249;-53
2021/08/12 04:33:52;;;;;;;29.13;24.38;;;;;;;;;;2054546;28;20183;-54
2021/08/12 04:34:53;;;;;;;26.17;22.88;;;;;;;;;;2058327;28;20939;-55
2021/08/12 04:35:54;;;;;;;28.77;23.52;;;;;;;;;;2067131;28;20670;-57
2021/08/12 04:36:54;;;;;;;27.23;24.38;;;;;;;;;;2064662;28;20209;-54
2021/08/12 04:37:55;;;;;;;26.00;23.30;;;;;;;;;;2048885;28;20796;-54
2021/08/12 04:38:55;;;;;;;26.23;23.48;;;;;;;;;;2053225;28;20664;-56
2021/08/12 04:39:56;;;;;;;26.35;23.40;;;;;;;;;;2056892;28;20229;-54
2021/08/12 04:40:56;;;;;;;26.52;23.73;;;;;;;;;;2062893;28;20174;-51
2021/08/12 04:41:56;;;;;;;26.13;23.38;;;;;;;;;;2072624;28;20265;-51
2021/08/12 04:42:57;;;;;;;25.05;22.48;;;;;;;;;;2071141;28;20169;-50
2021/08/12 04:43:57;;;;;;;28.95;24.45;;;;;;;;;;2049628;28;20182;-54
2021/08/12 04:44:59;;;;;;;27.88;23.75;;;;;;;;;;2054354;28;20166;-50
2021/08/12 04:46:00;;;;;;;27.15;24.25;;;;;;;;;;2058188;28;20281;-56
2021/08/12 04:47:00;;;;;;;26.30;23.35;;;;;;;;;;2077919;28;20184;-52
2021/08/12 04:48:02;;;;;;;27.30;24.30;;;;;;;;;;2066523;28;20178;-52
2021/08/12 04:49:04;;;;;;;26.13;23.35;;;;;;;;;;2059923;28;20169;-58
2021/08/12 04:50:05;;;;;;;27.77;23.95;;;;;;;;;;2058376;28;20206;-51
2021/08/12 04:51:06;;;;;;;26.80;23.92;;;;;;;;;;2059536;28;20181;-53
2021/08/12 04:52:07;;;;;;;26.17;23.48;;;;;;;;;;2059262;28;20634;-53
2021/08/12 04:53:08;;;;;;;25.50;21.60;;;;;;;;;;2069057;28;20276;-54
2021/08/12 04:54:08;;;;;;;24.20;21.60;;;;;;;;;;2058749;28;20193;-54
2021/08/12 04:55:10;;;;;;;25.30;22.70;;;;;;;;;;2063190;28;20173;-56
2021/08/12 04:56:10;;;;;;;27.27;23.25;;;;;;;;;;2072257;28;20176;-55
2021/08/12 04:57:11;;;;;;;26.52;22.98;;;;;;;;;;2073323;28;20184;-57
2021/08/12 04:58:12;;;;;;;26.40;22.10;;;;;;;;;;2059266;28;20161;-52
2021/08/12 04:59:12;;;;;;;24.60;22.02;;;;;;;;;;2062858;28;20212;-57
2021/08/12 05:00:14;;;;;;;24.45;21.83;;;;;;;;;;2067595;28;20190;-54
2021/08/12 05:01:18;;;;;;;24.00;21.45;;;;;;;;;;2059004;28;20201;-53
2021/08/12 05:02:19;;;;;;;25.77;21.75;;;;;;;;;;2051600;28;20187;-52
2021/08/12 05:03:20;;;;;;;25.00;22.40;;;;;;;;;;2060718;28;20193;-51
2021/08/12 05:04:20;;;;;;;24.75;22.10;;;;;;;;;;2066912;28;20178;-53
2021/08/12 05:05:21;;;;;;;23.80;21.58;;;;;;;;;;2075777;28;20176;-50
2021/08/12 05:06:23;;;;;;;25.42;22.48;;;;;;;;;;2071412;28;20726;-53
2021/08/12 05:07:23;;;;;;;23.73;20.75;;;;;;;;;;2046349;28;20170;-53
2021/08/12 05:08:24;;;;;;;23.67;21.17;;;;;;;;;;2060468;28;20185;-56
2021/08/12 05:09:25;;;;;;;25.48;22.73;;;;;;;;;;2073122;28;20200;-56
2021/08/12 05:10:27;;;;;;;23.92;21.35;;;;;;;;;;2063896;28;20265;-56
2021/08/12 05:11:30;;;;;;;23.83;21.15;;;;;;;;;;2054993;28;20178;-52
2021/08/12 05:12:30;;;;;;;23.77;21.10;;;;;;;;;;2047800;28;20269;-53
2021/08/12 05:13:30;;;;;;;27.17;22.20;;;;;;;;;;2062061;28;20170;-53
2021/08/12 05:14:31;;;;;;;25.13;22.17;;;;;;;;;;2071403;28;20538;-53
2021/08/12 05:15:31;;;;;;;24.08;21.55;;;;;;;;;;2066510;28;20161;-51
2021/08/12 05:16:32;;;;;;;24.58;22.08;;;;;;;;;;2061725;28;20549;-55
2021/08/12 05:17:32;;;;;;;27.33;24.48;;;;;;;;;;2057745;28;20237;-49
2021/08/12 05:18:32;;;;;;;29.05;24.95;;;;;;;;;;2070062;28;20633;-54
2021/08/12 05:19:33;;;;;;;24.25;21.63;;;;;;;;;;2065102;28;20166;-49
2021/08/12 05:20:33;;;;;;;24.52;22.05;;;;;;;;;;2071035;28;20187;-50
2021/08/12 05:21:34;;;;;;;25.13;22.58;;;;;;;;;;2056763;28;20170;-51
2021/08/12 05:22:34;;;;;;;24.95;21.95;;;;;;;;;;2047230;28;20273;-56
2021/08/12 05:23:36;;;;;;;23.77;21.27;;;;;;;;;;2059908;28;20200;-51
2021/08/12 05:24:36;;;;;;;24.42;21.95;;;;;;;;;;2077016;28;20759;-55
2021/08/12 05:25:36;;;;;;;25.92;23.27;;;;;;;;;;2058017;28;20159;-53
2021/08/12 05:26:37;;;;;;;25.63;22.50;;;;;;;;;;2047760;28;20187;-51
2021/08/12 05:27:37;;;;;;;24.17;21.75;;;;;;;;;;2057134;28;20180;-53
2021/08/12 05:28:38;;;;;;;26.70;23.95;;;;;;;;;;2060453;28;20213;-52
2021/08/12 05:29:39;;;;;;;26.05;23.42;;;;;;;;;;2056278;28;20213;-54
2021/08/12 05:30:39;;;;;;;23.83;21.50;;;;;;;;;;2060866;28;20204;-53
2021/08/12 05:31:40;;;;;;;25.75;21.67;;;;;;;;;;2079188;28;20172;-52
2021/08/12 05:32:40;;;;;;;24.20;21.05;;;;;;;;;;2064382;28;20228;-51
2021/08/12 05:33:41;;;;;;;24.35;21.85;;;;;;;;;;2041850;29;20171;-52
2021/08/12 05:34:42;;;;;;;23.13;20.90;;;;;;;;;;2044532;29;20171;-51
2021/08/12 05:35:42;;;;;;;24.05;21.65;;;;;;;;;;2063696;28;20604;-53
2021/08/12 05:36:43;;;;;;;24.08;21.65;;;;;;;;;;2064006;28;20212;-52
2021/08/12 05:37:43;;;;;;;24.83;22.17;;;;;;;;;;2063564;28;20165;-53
2021/08/12 05:38:43;;;;;;;24.42;21.83;;;;;;;;;;2058229;28;20178;-56
2021/08/12 05:39:43;;;;;;;24.58;21.83;;;;;;;;;;2071626;28;20199;-53
2021/08/12 05:40:44;;;;;;;22.42;20.20;;;;;;;;;;2062328;28;20272;-50
2021/08/12 05:41:44;;;;;;;24.63;21.15;;;;;;;;;;2048408;28;20261;-49
2021/08/12 05:42:44;;;;;;;24.25;21.75;;;;;;;;;;2058294;28;20185;-57
2021/08/12 05:43:45;;;;;;;21.45;19.15;;;;;;;;;;2064320;28;20173;-50
2021/08/12 05:44:47;;;;;;;22.38;20.05;;;;;;;;;;2055064;28;20182;-53
2021/08/12 05:45:47;;;;;;;22.40;20.13;;;;;;;;;;2057120;28;20166;-52
2021/08/12 05:46:47;;;;;;;22.25;20.05;;;;;;;;;;2056350;28;20221;-53
2021/08/12 05:47:48;;;;;;;22.58;20.25;;;;;;;;;;2048799;28;20175;-54
2021/08/12 05:48:48;;;;;;;22.55;20.35;;;;;;;;;;2048207;28;20236;-55
2021/08/12 05:49:49;;;;;;;22.52;20.30;;;;;;;;;;2071995;28;20548;-50
2021/08/12 05:50:49;;;;;;;23.25;19.38;;;;;;;;;;2065142;28;20746;-51
2021/08/12 05:51:52;;;;;;;23.52;21.02;;;;;;;;;;2053832;28;20189;-53
2021/08/12 05:52:53;;;;;;;21.63;19.08;;;;;;;;;;2061810;28;20178;-50
2021/08/12 05:53:53;;;;;;;22.02;19.90;;;;;;;;;;2065111;28;20173;-50
2021/08/12 05:54:53;;;;;;;21.77;19.60;;;;;;;;;;2064886;28;20180;-52
2021/08/12 05:55:54;;;;;;;22.95;20.52;;;;;;;;;;2076541;28;20664;-51
2021/08/12 05:56:54;;;;;;;20.52;18.60;;;;;;;;;;2076726;28;20607;-51
2021/08/12 05:57:55;;;;;;;20.45;18.45;;;;;;;;;;2070845;28;20153;-50
2021/08/12 05:58:55;;;;;;;20.90;18.60;;;;;;;;;;2057694;28;20178;-51